Delta Virtual Airport Information Service

Rome Ciampino Airport

ICAO: LIRA Country: Italy
Latitude: 41.7994 Longitude: 12.5949
Latest Arrival : RYR1399 (1) (LGAV-LIRA) Latest Departure : RYR1198 (1) (LIRA-LGAV)


WX CaptureLIVE
Data provided by noaa.gov | Fetched at 20:49:33

METAR : LIRA 250120Z 02003KT 360V060 CAVOK 12/12 Q1017

TAF : LIRA 242300Z 2500/2524 20010KT 9999 FEW025 BECMG 2414/2416 VRB05KT


Runway Data for LIRA
Data provided by openaviationdata.com

Runway ID Mag Var Hdg Length Elevation Surface ILS Freq ILS Id ILS Slope
15 1 151° 7242 ft 372 ft Macadam 109.9 CIA 3
33 1 331° 7242 ft 372 ft Macadam -- -- --

Rome Ciampino Airport, Italy
Use only for reference purposes



Not for navigational purposes.